Airfield :
LOGIN :

Register | Disclaimer

   EN    FR    IT 

 










Legend :    VFR   Marginal VFR   IFR   Intensive IFR   Very Intensive IFR
Visi :
Ceiling :
>= 8 km
>= 3000ft
5 to 8 km
1000 to 3000 ft
1500m to 5 km
500 to 1000 ft
800 to 1500m
200 to 500 ft
< 800m
< 200 ft
Symbols :   Thunderstorms  Fog  Heavy snow  Heavy precipitations  Wind > 20 kt
SIGMETs :     Misc.  Thunderstorms  Icing  Turbulence  Mountain Waves  Volcanic Ashes






- Airport Elevation : 119 ft
- IATA code : WAT


EIWF - Waterford

CURRENT METAR :
  • 231630Z 21023KT 180V240 9999 -RA BKN022 13/10 Q1015

EXPIRED METARs :
  • 231600Z 21023KT 9999 -RA FEW024 BKN027 13/10 Q1015
  • 231530Z 21022KT 9999 BKN025 14/11 Q1015
  • 231500Z 21021G32KT 9999 SCT024 BKN029 13/10 Q1015

TAF TAF EIWF
Valid from the 23 at 18:00 until the 24 at 03:00 UTC


231700Z 2318/2403 21020KT 9999 FEW012 BKN020
TEMPO 2318/2323 21023G36KT 4000 -RA BKN012
BECMG 2323/2401 20024G40KT 6000 -RA SCT007 BKN012
TEMPO 2323/2403 3000 -RADZ BKN007
ATIS : +353 51 877 000



MET'MAP, your aeronautical weather chart ! - Copyright ORBIFLY December 2007 - Disclaimer

ORBIFLY MET'MAP TEAM :

Programming & Development : Alexandra Zaïnal
Concept & original design : Baudouin d'Aumeries
Assistance for programming : Marc-Olivier Méhu
Technical & hardware support : Manuel Goepfert

Contact : metmap@orbifly.com




SOURCES & CREDITS :

   NOAA